Latest Coastal Weather Observations for Cape Leeuwin

IDW60701

Issued at 8:32 am WST Monday 22 December 2014 (issued every 10 minutes, with the page automatically refreshed every 10 minutes)

About coastal observations | Map of coastal stations | Coastal observations for WA | Marine services | Other Formats
Station Details ID: 009518 Name: CAPE LEEUWIN Lat: -34.37 Lon: 115.14 Height: 13.0 m
Data from the previous 72 hours. | See also: Recent months at Cape Leeuwin
Date/Time
WST
Temp

°C
Wind Pressure Rain
since 9am
mm
Weather Cloud Vis
km
Sea
Height
m
Swell
Dir
 
Speed
knots
Gust
knots
hPa Trend Height
m
Period
s
Dir
22/08:00am 17.6 ENE 14 16 1020.3 - 0.2 - - - - - - -
22/07:00am 16.1 ENE 10 12 1020.2 - 0.2 - - - - - - -
22/06:30am 15.2 ENE 11 13 1019.7 - 0.2 - - - - - - -
22/06:00am 15.1 ENE 10 13 1019.4 - 0.2 - - - - - - -
22/05:30am 14.6 ENE 11 14 1019.3 - 0.2 - - - - - - -
22/05:00am 14.7 NE 9 11 1019.1 - 0.2 - - - - - - -
22/04:30am 15.8 E 13 16 1018.9 - 0.2 - - - - - - -
22/04:00am 16.5 ESE 13 16 1018.7 - 0.2 - - - - - - -
22/03:30am 16.3 ESE 14 17 1018.8 - 0.2 - - - - - - -
22/03:00am 16.3 ESE 15 18 1018.7 - 0.2 - - - - - - -
22/02:30am 16.3 ESE 15 21 1018.6 - 0.2 - - - - - - -
22/02:00am 16.3 ESE 14 18 1018.9 - 0.2 - - - - - - -
22/01:30am 16.3 SE 15 18 1019.2 - 0.2 - - - - - - -
22/01:00am 16.4 ESE 15 17 1019.5 - 0.2 - - - - - - -
22/12:30am 16.5 SE 15 21 1019.9 - 0.2 - - - - - - -
 
Date/Time
WST
Temp

°C
Wind Pressure Rain
since 9am
mm
Weather Cloud Vis
km
Sea
Height
m
Swell
Dir
 
Speed
knots
Gust
knots
hPa Trend Height
m
Period
s
Dir
21/11:30pm 16.4 SE 16 20 1020.2 - 0.2 - - - - - - -
21/11:00pm 16.4 SE 17 21 1020.4 - 0.2 - - - - - - -
21/10:30pm 16.4 SE 17 21 1020.4 - 0.2 - - - - - - -
21/10:00pm 16.6 SE 18 21 1020.5 - 0.2 - - - - - - -
21/09:30pm 16.4 SE 18 21 1020.6 - 0.2 - - - - - - -
21/09:00pm 16.4 SE 18 22 1020.4 - 0.2 - - - - - - -
21/08:30pm 16.4 SE 19 23 1020.3 - 0.2 - - - - - - -
21/08:00pm 16.7 SE 19 23 1019.9 - 0.2 - - - - - - -
21/07:30pm 16.6 SE 21 25 1019.7 - 0.2 - - - - - - -
21/07:00pm 17.0 SSE 21 25 1019.4 - 0.2 - - - - - - -
21/06:30pm 17.4 SSE 20 24 1019.5 - 0.2 - - - - - - -
21/06:00pm 18.0 SE 18 23 1019.5 - 0.2 - - - - - - -
21/05:30pm 18.0 SE 19 25 1019.4 - 0.2 - - - - - - -
21/05:00pm 18.8 SE 18 23 1019.3 - 0.2 - - - - - - -
21/04:30pm 18.7 SSE 19 22 1019.5 - 0.2 - - - - - - -
21/04:00pm 19.1 SSE 17 22 1019.8 - 0.2 - - - - - - -
21/03:30pm 19.6 SSE 18 24 1019.9 - 0.2 - - - - - - -
21/03:00pm 19.5 SSE 18 22 1020.1 - 0.2 - - - - - - -
21/02:30pm 19.9 SE 19 22 1020.1 - 0.2 - - - - - - -
21/02:00pm 19.9 SE 18 23 1020.1 - 0.2 - - - - - - -
21/01:30pm 20.6 SE 17 21 1020.4 - 0.2 - - - - - - -
21/01:00pm 20.5 SE 17 22 1020.6 - 0.2 - - - - - - -
21/12:30pm 20.2 SE 18 23 1020.7 - 0.2 - - - - - - -
21/12:00pm 19.2 SE 17 23 1020.8 - 0.2 Recent precip. - - - - - -
21/11:30am 18.9 SE 18 23 1021.1 - 0.0 - - - - - - -
21/11:00am 18.6 SE 18 24 1021.2 - 0.0 - - - - - - -
21/10:30am 19.0 SE 18 23 1021.4 - 0.0 - - - - - - -
21/10:00am 19.3 SE 18 22 1021.2 - 0.0 - - - - - - -
21/09:30am 18.3 SE 18 23 1021.2 - 0.0 - - - - - - -
21/09:00am 17.7 SE 21 25 1021.1 - 0.4 - - - - - - -
21/08:30am 17.4 SE 20 25 1021.0 - 0.4 - - - - - - -
21/08:00am 17.7 SE 17 22 1021.0 - 0.4 - - - - - - -
21/07:30am 17.5 SE 20 25 1021.0 - 0.4 - - - - - - -
21/07:00am 17.1 SE 18 23 1020.8 - 0.4 - - - - - - -
21/06:30am 16.8 SE 19 24 1020.6 - 0.4 - - - - - - -
21/06:00am 16.8 SSE 17 23 1020.3 - 0.4 - - - - - - -
21/05:30am 16.7 SE 20 27 1020.0 - 0.4 - - - - - - -
21/05:00am 17.1 SE 17 22 1019.6 - 0.4 - - - - - - -
21/04:30am 16.9 SSE 16 23 1019.5 - 0.4 - - - - - - -
21/04:00am 16.7 SE 19 24 1019.5 - 0.4 - - - - - - -
21/03:30am 17.1 SE 17 23 1019.2 - 0.4 - - - - - - -
21/03:00am 17.1 SE 19 23 1019.0 - 0.4 - - - - - - -
21/02:30am 17.2 SSE 20 24 1018.9 - 0.4 - - - - - - -
21/02:00am 17.4 SSE 21 24 1018.8 - 0.4 - - - - - - -
21/01:30am 17.6 SSE 21 26 1019.0 - 0.4 - - - - - - -
21/01:00am 17.5 SSE 21 26 1019.0 - 0.4 - - - - - - -
21/12:30am 17.5 SE 21 26 1018.9 - 0.4 - - - - - - -
21/12:00am 17.6 SE 23 27 1018.9 - 0.4 - - - - - - -
 
Date/Time
WST
Temp

°C
Wind Pressure Rain
since 9am
mm
Weather Cloud Vis
km
Sea
Height
m
Swell
Dir
 
Speed
knots
Gust
knots
hPa Trend Height
m
Period
s
Dir
20/11:30pm 17.3 SE 23 30 1019.1 - 0.4 - - - - - - -
20/11:00pm 17.6 SE 24 29 1018.8 - 0.4 - - - - - - -
20/10:30pm 17.7 SSE 22 28 1018.7 - 0.4 - - - - - - -
20/10:00pm 17.1 SSE 22 27 1018.7 - 0.4 - - - - - - -
20/09:30pm 17.0 SSE 20 25 1018.5 - 0.4 - - - - - - -
20/09:00pm 17.0 SSE 23 27 1018.2 - 0.4 Recent precip. - - - - - -
20/08:30pm 17.1 SSE 22 29 1018.0 - 0.0 - - - - - - -
20/08:00pm 17.5 SSE 19 26 1017.7 - 0.0 - - - - - - -
20/07:30pm 18.3 SSE 18 25 1017.4 - 0.0 - - - - - - -
20/07:00pm 18.8 SSE 20 26 1016.9 - 0.0 - - - - - - -
20/06:30pm 19.2 SSE 19 24 1016.6 - 0.0 - - - - - - -
20/06:00pm 19.6 SSE 19 27 1016.2 - 0.0 - - - - - - -
20/05:30pm 19.7 SSE 21 27 1015.7 - 0.0 - - - - - - -
20/05:00pm 20.0 SSE 23 27 1015.5 - 0.0 - - - - - - -
20/04:30pm 20.7 SSE 22 29 1015.4 - 0.0 - - - - - - -
20/04:00pm 20.8 SSE 23 29 1015.0 - 0.0 - - - - - - -
20/03:30pm 21.6 SE 21 25 1014.8 - 0.0 - - - - - - -
20/03:00pm 21.2 SSE 22 27 1014.8 - 0.0 - - - - - - -
20/02:30pm 21.0 SSE 21 25 1014.7 - 0.0 - - - - - - -
20/02:00pm 21.1 SSE 21 25 1014.5 - 0.0 - - - - - - -
20/01:30pm 21.2 SSE 24 29 1014.5 - 0.0 - - - - - - -
20/01:00pm 21.6 SSE 21 27 1014.5 - 0.0 - - - - - - -
20/12:30pm 20.8 SSE 21 27 1014.3 - 0.0 - - - - - - -
20/12:00pm 19.8 SSE 20 27 1014.2 - 0.0 - - - - - - -
20/11:30am 20.5 S 21 27 1014.0 - 0.0 - - - - - - -
20/11:00am 20.8 SSE 22 27 1013.8 - 0.0 - - - - - - -
20/10:30am 21.4 SSE 21 26 1013.5 - 0.0 - - - - - - -
20/10:00am 20.1 SSE 21 26 1013.2 - 0.0 - - - - - - -
20/09:30am 19.6 SSE 19 25 1013.2 - 0.0 - - - - - - -
20/09:00am 20.2 SSE 19 25 1013.0 - 0.0 - - - - - - -
20/08:30am 20.1 SSE 18 23 1013.0 - 0.0 - - - - - - -
20/08:00am 19.2 SSE 19 27 1013.0 - 0.0 - - - - - - -
20/07:30am 18.4 S 19 26 1012.8 - 0.0 - - - - - - -
20/07:00am 18.5 SSE 18 25 1012.4 - 0.0 - - - - - - -
20/06:30am 18.6 SSE 17 22 1012.2 - 0.0 - - - - - - -
20/06:00am 18.5 SSE 16 21 1011.8 - 0.0 - - - - - - -
20/05:30am 18.4 SSE 17 22 1011.6 - 0.0 - - - - - - -
20/05:00am 18.4 SSE 16 23 1011.1 - 0.0 - - - - - - -
20/04:30am 18.4 SSE 16 21 1010.7 - 0.0 - - - - - - -
20/04:00am 18.4 SSE 17 23 1010.6 - 0.0 - - - - - - -
20/03:30am 18.5 SSE 16 22 1010.3 - 0.0 - - - - - - -
20/03:00am 18.4 SSE 17 21 1010.2 - 0.0 - - - - - - -
20/02:30am 18.6 SSE 17 22 1010.3 - 0.0 - - - - - - -
20/02:00am 18.6 SSE 17 21 1010.7 - 0.0 - - - - - - -
20/01:30am 18.6 SSE 17 21 1011.2 - 0.0 - - - - - - -
20/01:00am 18.6 SSE 18 21 1011.7 - 0.0 - - - - - - -
20/12:30am 18.7 SE 15 20 1012.4 - 0.0 - - - - - - -
20/12:00am 18.7 SSE 16 20 1012.7 - 0.0 - - - - - - -
 
Date/Time
WST
Temp

°C
Wind Pressure Rain
since 9am
mm
Weather Cloud Vis
km
Sea
Height
m
Swell
Dir
 
Speed
knots
Gust
knots
hPa Trend Height
m
Period
s
Dir
19/11:30pm 18.6 SE 16 21 1012.9 - 0.0 - - - - - - -
19/11:00pm 18.4 SE 18 24 1012.9 - 0.0 - - - - - - -
19/10:30pm 18.4 SE 17 22 1013.2 - 0.0 - - - - - - -
19/10:00pm 18.3 SE 20 25 1013.1 - 0.0 - - - - - - -
19/09:30pm 18.6 SE 19 25 1013.1 - 0.0 - - - - - - -
19/09:00pm 18.5 SE 21 27 1012.8 - 0.0 - - - - - - -
19/08:30pm 18.6 SE 21 25 1013.2 - 0.0 - - - - - - -
19/08:00pm 18.6 SSE 21 24 1013.2 - 0.0 - - - - - - -
19/07:30pm 18.5 SE 19 25 1012.9 - 0.0 - - - - - - -
19/07:00pm 18.6 SE 20 26 1012.9 - 0.0 - - - - - - -
19/06:30pm 18.9 SE 20 25 1013.1 - 0.0 - - - - - - -
19/06:00pm 19.5 SE 20 25 1013.0 - 0.0 - - - - - - -
19/05:30pm 19.9 SE 19 25 1013.1 - 0.0 - - - - - - -
19/05:00pm 20.4 SE 19 24 1013.1 - 0.0 - - - - - - -
19/04:30pm 20.6 SSE 20 24 1013.1 - 0.0 - - - - - - -
19/04:00pm 21.1 SE 18 23 1013.4 - 0.0 - - - - - - -
19/03:30pm 21.0 SSE 18 24 1013.7 - 0.0 - - - - - - -
19/03:00pm 22.1 SSE 17 21 1013.8 - 0.0 - - - - - - -
19/02:30pm 21.6 SSE 17 22 1013.6 - 0.0 - - - - - - -
19/02:00pm 22.5 SSE 16 20 1013.9 - 0.0 - - - - - - -
19/01:30pm 22.4 SSE 14 18 1014.2 - 0.0 - - - - - - -
19/01:00pm 22.5 SSE 13 17 1014.6 - 0.0 - - - - - - -
19/12:30pm 22.4 SSE 15 18 1015.0 - 0.0 - - - - - - -
19/12:00pm 23.0 SE 15 19 1015.3 - 0.0 - - - - - - -
19/11:30am 22.5 SE 17 21 1015.3 - 0.0 - - - - - - -
19/11:00am 21.5 SE 16 19 1015.3 - 0.0 - - - - - - -
19/10:30am 21.1 SE 16 20 1015.6 - 0.0 - - - - - - -
19/10:00am 21.0 SE 15 20 1015.9 - 0.0 - - - - - - -
19/09:30am 20.5 SE 12 16 1016.5 - 0.0 - - - - - - -
19/09:00am 20.2 ESE 13 17 1016.6 - 0.0 - - - - - - -

Other Formats:

Comma delimited format used in spreadsheet applications
http://www.bom.gov.au/fwo/IDW60701/IDW60701.94601.axf

JavaScript Object Notation format (JSON) in row-major order
http://www.bom.gov.au/fwo/IDW60701/IDW60701.94601.json